PWSweather.com
Personal Weather Stations
Station Observations
INORDPAS37
Bondues, BonduesFR 59910

BonduesBonduesFR 59910

Lat: 50.7, Lon: 3.09

Elevation: 102

Station Type: Netatmo

http://bondues.meteoamikuze.com

High Low Average
Temperature 54.3°F12.4°C 37.0°F2.8°C 45.6°F7.6°C
Dew Point 37.9°F3.3°C 25.5°F-3.6°C 32.3°F0.2°C
Winds 4.3 mph 6.9 kmh 0.7 mph 1.1 kmh 2.0 mph SSW3.2 kmh SSW
Wind Gusts 11.2 mph18.0 kmh 1.8 mph2.9 kmh 5.0 mph8.0 kmh
Humidity 70% 58% 65%
Pressure 30.28 in1025.4 mb 30.17 in1021.7 mb -
Precipitation 0.00 in0.0 mm - -
Hour Temp Dew Point Humidity Winds Wind Gusts Pressure Precip Precip Rate Daily Precip Total
12:25 AM 41.9°F5.5°C 28.9°F-1.7°C 65% 1.8 mph SSW2.9 kmh SSW 3.1 mph5.0 kmh 30.19 in1022.4 mb 0.00 in0.0 mm 0.00 in0.0 mm 0.00 in0.0 mm
12:45 AM 41.7°F5.4°C 28.8°F-1.8°C 65% 1.3 mph S2.1 kmh S 2.5 mph4.0 kmh 30.20 in1022.7 mb 0.00 in0.0 mm 0.00 in0.0 mm 0.00 in0.0 mm
01:06 AM 41.5°F5.3°C 28.6°F-1.9°C 65% 1.3 mph S2.1 kmh S 3.1 mph5.0 kmh 30.19 in1022.4 mb 0.00 in0.0 mm 0.00 in0.0 mm 0.00 in0.0 mm
01:25 AM 41.4°F5.2°C 28.8°F-1.8°C 66% 1.3 mph S2.1 kmh S 2.5 mph4.0 kmh 30.19 in1022.4 mb 0.00 in0.0 mm 0.00 in0.0 mm 0.00 in0.0 mm
01:46 AM 41.4°F5.2°C 28.8°F-1.8°C 66% 1.3 mph S2.1 kmh S 2.5 mph4.0 kmh 30.19 in1022.4 mb 0.00 in0.0 mm 0.00 in0.0 mm 0.00 in0.0 mm
02:06 AM 41.2°F5.1°C 28.6°F-1.9°C 66% 1.3 mph S2.1 kmh S 2.5 mph4.0 kmh 30.19 in1022.4 mb 0.00 in0.0 mm 0.00 in0.0 mm 0.00 in0.0 mm
02:26 AM 40.6°F4.8°C 28.0°F-2.2°C 66% 0.7 mph SSE1.1 kmh SSE 1.8 mph2.9 kmh 30.19 in1022.4 mb 0.00 in0.0 mm 0.00 in0.0 mm 0.00 in0.0 mm
02:46 AM 40.3°F4.6°C 27.7°F-2.4°C 66% 1.8 mph SSE2.9 kmh SSE 3.1 mph5.0 kmh 30.19 in1022.4 mb 0.00 in0.0 mm 0.00 in0.0 mm 0.00 in0.0 mm
03:07 AM 40.3°F4.6°C 27.7°F-2.4°C 66% 2.5 mph SSE4.0 kmh SSE 3.8 mph6.1 kmh 30.19 in1022.4 mb 0.00 in0.0 mm 0.00 in0.0 mm 0.00 in0.0 mm
03:27 AM 40.1°F4.5°C 28.0°F-2.2°C 67% 1.8 mph S2.9 kmh S 2.5 mph4.0 kmh 30.18 in1022.0 mb 0.00 in0.0 mm 0.00 in0.0 mm 0.00 in0.0 mm
03:47 AM 39.7°F4.3°C 27.7°F-2.4°C 67% 1.8 mph SSE2.9 kmh SSE 3.1 mph5.0 kmh 30.18 in1022.0 mb 0.00 in0.0 mm 0.00 in0.0 mm 0.00 in0.0 mm
04:08 AM 39.6°F4.2°C 27.5°F-2.5°C 67% 3.1 mph SSE5.0 kmh SSE 4.3 mph6.9 kmh 30.17 in1021.7 mb 0.00 in0.0 mm 0.00 in0.0 mm 0.00 in0.0 mm
04:28 AM 39.0°F3.9°C 27.0°F-2.8°C 67% 2.5 mph SSE4.0 kmh SSE 4.3 mph6.9 kmh 30.17 in1021.7 mb 0.00 in0.0 mm 0.00 in0.0 mm 0.00 in0.0 mm
04:48 AM 38.8°F3.8°C 27.1°F-2.7°C 68% 1.8 mph SSE2.9 kmh SSE 3.8 mph6.1 kmh 30.17 in1021.7 mb 0.00 in0.0 mm 0.00 in0.0 mm 0.00 in0.0 mm
05:08 AM 38.7°F3.7°C 27.0°F-2.8°C 68% 1.8 mph SSE2.9 kmh SSE 3.8 mph6.1 kmh 30.17 in1021.7 mb 0.00 in0.0 mm 0.00 in0.0 mm 0.00 in0.0 mm
05:20 AM 38.7°F3.7°C 27.0°F-2.8°C 68% 1.8 mph S2.9 kmh S 3.1 mph5.0 kmh 30.18 in1022.0 mb 0.00 in0.0 mm 0.00 in0.0 mm 0.00 in0.0 mm
05:41 AM 38.5°F3.6°C 26.8°F-2.9°C 68% 1.3 mph S2.1 kmh S 2.5 mph4.0 kmh 30.17 in1021.7 mb 0.00 in0.0 mm 0.00 in0.0 mm 0.00 in0.0 mm
06:01 AM 38.3°F3.5°C 26.6°F-3.0°C 68% 1.8 mph S2.9 kmh S 3.1 mph5.0 kmh 30.17 in1021.7 mb 0.00 in0.0 mm 0.00 in0.0 mm 0.00 in0.0 mm
06:21 AM 38.1°F3.4°C 26.4°F-3.1°C 68% 1.3 mph S2.1 kmh S 2.5 mph4.0 kmh 30.18 in1022.0 mb 0.00 in0.0 mm 0.00 in0.0 mm 0.00 in0.0 mm
06:43 AM 37.8°F3.2°C 26.1°F-3.3°C 68% 1.3 mph S2.1 kmh S 2.5 mph4.0 kmh 30.18 in1022.0 mb 0.00 in0.0 mm 0.00 in0.0 mm 0.00 in0.0 mm
07:08 AM 37.2°F2.9°C 25.5°F-3.6°C 68% 1.3 mph S2.1 kmh S 3.1 mph5.0 kmh 30.18 in1022.0 mb 0.00 in0.0 mm 0.00 in0.0 mm 0.00 in0.0 mm
07:28 AM 37.0°F2.8°C 25.7°F-3.5°C 69% 1.8 mph S2.9 kmh S 2.5 mph4.0 kmh 30.19 in1022.4 mb 0.00 in0.0 mm 0.00 in0.0 mm 0.00 in0.0 mm
07:48 AM 37.0°F2.8°C 25.7°F-3.5°C 69% 2.5 mph SSE4.0 kmh SSE 3.8 mph6.1 kmh 30.19 in1022.4 mb 0.00 in0.0 mm 0.00 in0.0 mm 0.00 in0.0 mm
08:09 AM 37.0°F2.8°C 25.7°F-3.5°C 69% 1.8 mph S2.9 kmh S 3.1 mph5.0 kmh 30.20 in1022.7 mb 0.00 in0.0 mm 0.00 in0.0 mm 0.00 in0.0 mm
08:28 AM 37.2°F2.9°C 25.9°F-3.4°C 69% 1.8 mph S2.9 kmh S 3.8 mph6.1 kmh 30.21 in1023.0 mb 0.00 in0.0 mm 0.00 in0.0 mm 0.00 in0.0 mm
08:49 AM 37.4°F3.0°C 26.1°F-3.3°C 69% 1.8 mph S2.9 kmh S 3.8 mph6.1 kmh 30.22 in1023.4 mb 0.00 in0.0 mm 0.00 in0.0 mm 0.00 in0.0 mm
09:09 AM 37.9°F3.3°C 27.0°F-2.8°C 70% 2.5 mph SSW4.0 kmh SSW 4.9 mph7.9 kmh 30.22 in1023.4 mb 0.00 in0.0 mm 0.00 in0.0 mm 0.00 in0.0 mm
09:19 AM 38.7°F3.7°C 27.7°F-2.4°C 70% 3.1 mph SSW5.0 kmh SSW 7.4 mph11.9 kmh 30.22 in1023.4 mb 0.00 in0.0 mm 0.00 in0.0 mm 0.00 in0.0 mm
09:39 AM 40.3°F4.6°C 29.3°F-1.5°C 70% 2.5 mph SSW4.0 kmh SSW 5.6 mph9.0 kmh 30.23 in1023.7 mb 0.00 in0.0 mm 0.00 in0.0 mm 0.00 in0.0 mm
10:00 AM 42.3°F5.7°C 31.1°F-0.5°C 70% 3.1 mph SSW5.0 kmh SSW 5.6 mph9.0 kmh 30.23 in1023.7 mb 0.00 in0.0 mm 0.00 in0.0 mm 0.00 in0.0 mm
10:20 AM 44.1°F6.7°C 32.9°F0.5°C 70% 2.5 mph SW4.0 kmh SW 4.3 mph6.9 kmh 30.23 in1023.7 mb 0.00 in0.0 mm 0.00 in0.0 mm 0.00 in0.0 mm
10:40 AM 45.7°F7.6°C 34.3°F1.3°C 70% 2.5 mph SSW4.0 kmh SSW 4.9 mph7.9 kmh 30.24 in1024.0 mb 0.00 in0.0 mm 0.00 in0.0 mm 0.00 in0.0 mm
11:00 AM 47.3°F8.5°C 35.6°F2.0°C 69% 2.5 mph SSW4.0 kmh SSW 4.9 mph7.9 kmh 30.24 in1024.0 mb 0.00 in0.0 mm 0.00 in0.0 mm 0.00 in0.0 mm
11:21 AM 48.2°F9.0°C 36.1°F2.3°C 68% 2.5 mph SW4.0 kmh SW 4.9 mph7.9 kmh 30.24 in1024.0 mb 0.00 in0.0 mm 0.00 in0.0 mm 0.00 in0.0 mm
11:40 AM 48.9°F9.4°C 36.3°F2.4°C 67% 2.5 mph SW4.0 kmh SW 4.9 mph7.9 kmh 30.24 in1024.0 mb 0.00 in0.0 mm 0.00 in0.0 mm 0.00 in0.0 mm
12:01 PM 48.9°F9.4°C 36.0°F2.2°C 66% 3.1 mph SW5.0 kmh SW 8.1 mph13.0 kmh 30.24 in1024.0 mb 0.00 in0.0 mm 0.00 in0.0 mm 0.00 in0.0 mm
12:21 PM 48.9°F9.4°C 35.6°F2.0°C 65% 3.1 mph S5.0 kmh S 8.1 mph13.0 kmh 30.24 in1024.0 mb 0.00 in0.0 mm 0.00 in0.0 mm 0.00 in0.0 mm
12:41 PM 49.3°F9.6°C 36.0°F2.2°C 65% 3.1 mph SSW5.0 kmh SSW 7.4 mph11.9 kmh 30.24 in1024.0 mb 0.00 in0.0 mm 0.00 in0.0 mm 0.00 in0.0 mm
01:02 PM 50.0°F10.0°C 36.3°F2.4°C 64% 2.5 mph SW4.0 kmh SW 4.9 mph7.9 kmh 30.24 in1024.0 mb 0.00 in0.0 mm 0.00 in0.0 mm 0.00 in0.0 mm
01:21 PM 50.5°F10.3°C 36.3°F2.4°C 63% 3.1 mph SW5.0 kmh SW 7.4 mph11.9 kmh 30.24 in1024.0 mb 0.00 in0.0 mm 0.00 in0.0 mm 0.00 in0.0 mm
01:42 PM 51.1°F10.6°C 35.2°F1.8°C 59% 3.8 mph SW6.1 kmh SW 8.1 mph13.0 kmh 30.24 in1024.0 mb 0.00 in0.0 mm 0.00 in0.0 mm 0.00 in0.0 mm
02:02 PM 51.8°F11.0°C 36.3°F2.4°C 60% 3.1 mph SW5.0 kmh SW 6.9 mph11.1 kmh 30.24 in1024.0 mb 0.00 in0.0 mm 0.00 in0.0 mm 0.00 in0.0 mm
02:22 PM 51.8°F11.0°C 35.6°F2.0°C 58% 4.3 mph SW6.9 kmh SW 8.7 mph14.0 kmh 30.23 in1023.7 mb 0.00 in0.0 mm 0.00 in0.0 mm 0.00 in0.0 mm
02:42 PM 52.2°F11.2°C 36.3°F2.4°C 59% 3.1 mph SW5.0 kmh SW 7.4 mph11.9 kmh 30.24 in1024.0 mb 0.00 in0.0 mm 0.00 in0.0 mm 0.00 in0.0 mm
03:03 PM 52.7°F11.5°C 36.5°F2.5°C 58% 3.1 mph SSW5.0 kmh SSW 8.1 mph13.0 kmh 30.23 in1023.7 mb 0.00 in0.0 mm 0.00 in0.0 mm 0.00 in0.0 mm
03:23 PM 53.6°F12.0°C 37.2°F2.9°C 58% 4.3 mph SW6.9 kmh SW 11.2 mph18.0 kmh 30.24 in1024.0 mb 0.00 in0.0 mm 0.00 in0.0 mm 0.00 in0.0 mm
03:43 PM 54.1°F12.3°C 37.8°F3.2°C 58% 3.8 mph SW6.1 kmh SW 8.7 mph14.0 kmh 30.23 in1023.7 mb 0.00 in0.0 mm 0.00 in0.0 mm 0.00 in0.0 mm
04:04 PM 54.3°F12.4°C 37.9°F3.3°C 58% 3.8 mph SW6.1 kmh SW 8.7 mph14.0 kmh 30.24 in1024.0 mb 0.00 in0.0 mm 0.00 in0.0 mm 0.00 in0.0 mm
04:23 PM 54.0°F12.2°C 37.6°F3.1°C 58% 3.8 mph SW6.1 kmh SW 9.4 mph15.1 kmh 30.24 in1024.0 mb 0.00 in0.0 mm 0.00 in0.0 mm 0.00 in0.0 mm
04:44 PM 52.9°F11.6°C 36.7°F2.6°C 58% 3.1 mph WSW5.0 kmh WSW 7.4 mph11.9 kmh 30.24 in1024.0 mb 0.00 in0.0 mm 0.00 in0.0 mm 0.00 in0.0 mm
05:04 PM 52.3°F11.3°C 36.5°F2.5°C 59% 3.1 mph SW5.0 kmh SW 7.4 mph11.9 kmh 30.24 in1024.0 mb 0.00 in0.0 mm 0.00 in0.0 mm 0.00 in0.0 mm
05:25 PM 51.8°F11.0°C 36.3°F2.4°C 60% 3.8 mph SW6.1 kmh SW 7.4 mph11.9 kmh 30.24 in1024.0 mb 0.00 in0.0 mm 0.00 in0.0 mm 0.00 in0.0 mm
05:44 PM 51.3°F10.7°C 36.0°F2.2°C 60% 1.3 mph SW2.1 kmh SW 4.9 mph7.9 kmh 30.24 in1024.0 mb 0.00 in0.0 mm 0.00 in0.0 mm 0.00 in0.0 mm
06:05 PM 50.5°F10.3°C 35.6°F2.0°C 61% 1.8 mph SW2.9 kmh SW 3.8 mph6.1 kmh 30.24 in1024.0 mb 0.00 in0.0 mm 0.00 in0.0 mm 0.00 in0.0 mm
06:25 PM 50.2°F10.1°C 35.2°F1.8°C 61% 1.3 mph S2.1 kmh S 2.5 mph4.0 kmh 30.24 in1024.0 mb 0.00 in0.0 mm 0.00 in0.0 mm 0.00 in0.0 mm
06:45 PM 50.2°F10.1°C 35.6°F2.0°C 62% 1.3 mph S2.1 kmh S 3.1 mph5.0 kmh 30.25 in1024.4 mb 0.00 in0.0 mm 0.00 in0.0 mm 0.00 in0.0 mm
07:06 PM 50.4°F10.2°C 35.8°F2.1°C 62% 1.8 mph S2.9 kmh S 3.1 mph5.0 kmh 30.25 in1024.4 mb 0.00 in0.0 mm 0.00 in0.0 mm 0.00 in0.0 mm
07:26 PM 50.4°F10.2°C 35.8°F2.1°C 62% 1.8 mph SSE2.9 kmh SSE 3.8 mph6.1 kmh 30.25 in1024.4 mb 0.00 in0.0 mm 0.00 in0.0 mm 0.00 in0.0 mm
07:46 PM 50.2°F10.1°C 36.0°F2.2°C 63% 1.3 mph S2.1 kmh S 3.1 mph5.0 kmh 30.25 in1024.4 mb 0.00 in0.0 mm 0.00 in0.0 mm 0.00 in0.0 mm
08:06 PM 50.0°F10.0°C 35.8°F2.1°C 63% 0.7 mph S1.1 kmh S 1.8 mph2.9 kmh 30.27 in1025.1 mb 0.00 in0.0 mm 0.00 in0.0 mm 0.00 in0.0 mm
08:26 PM 50.0°F10.0°C 35.8°F2.1°C 63% 1.3 mph S2.1 kmh S 2.5 mph4.0 kmh 30.27 in1025.1 mb 0.00 in0.0 mm 0.00 in0.0 mm 0.00 in0.0 mm
08:46 PM 49.8°F9.9°C 35.8°F2.1°C 63% 0.7 mph SSW1.1 kmh SSW 1.8 mph2.9 kmh 30.27 in1025.1 mb 0.00 in0.0 mm 0.00 in0.0 mm 0.00 in0.0 mm
09:07 PM 49.8°F9.9°C 36.1°F2.3°C 64% 1.3 mph SSW2.1 kmh SSW 2.5 mph4.0 kmh 30.26 in1024.7 mb 0.00 in0.0 mm 0.00 in0.0 mm 0.00 in0.0 mm
09:27 PM 49.6°F9.8°C 36.0°F2.2°C 64% 1.3 mph SSW2.1 kmh SSW 1.8 mph2.9 kmh 30.27 in1025.1 mb 0.00 in0.0 mm 0.00 in0.0 mm 0.00 in0.0 mm
09:47 PM 49.6°F9.8°C 36.0°F2.2°C 64% 1.8 mph S2.9 kmh S 3.8 mph6.1 kmh 30.26 in1024.7 mb 0.00 in0.0 mm 0.00 in0.0 mm 0.00 in0.0 mm
10:07 PM 49.6°F9.8°C 36.0°F2.2°C 64% 1.8 mph S2.9 kmh S 3.8 mph6.1 kmh 30.27 in1025.1 mb 0.00 in0.0 mm 0.00 in0.0 mm 0.00 in0.0 mm
10:27 PM 49.1°F9.5°C 35.4°F1.9°C 64% 1.8 mph S2.9 kmh S 3.1 mph5.0 kmh 30.27 in1025.1 mb 0.00 in0.0 mm 0.00 in0.0 mm 0.00 in0.0 mm
10:47 PM 48.4°F9.1°C 34.7°F1.5°C 64% 1.3 mph SW2.1 kmh SW 3.1 mph5.0 kmh 30.27 in1025.1 mb 0.00 in0.0 mm 0.00 in0.0 mm 0.00 in0.0 mm
11:07 PM 47.8°F8.8°C 34.2°F1.2°C 64% 1.8 mph SSW2.9 kmh SSW 4.3 mph6.9 kmh 30.28 in1025.4 mb 0.00 in0.0 mm 0.00 in0.0 mm 0.00 in0.0 mm
11:28 PM 47.1°F8.4°C 34.0°F1.1°C 65% 1.8 mph SSW2.9 kmh SSW 3.8 mph6.1 kmh 30.28 in1025.4 mb 0.00 in0.0 mm 0.00 in0.0 mm 0.00 in0.0 mm
11:48 PM 46.8°F8.2°C 33.6°F0.9°C 65% 2.5 mph SSW4.0 kmh SSW 4.3 mph6.9 kmh 30.27 in1025.1 mb 0.00 in0.0 mm 0.00 in0.0 mm 0.00 in0.0 mm